sensor_id;sensor_type;location;lat;lon;timestamp;P1;durP1;ratioP1;P2;durP2;ratioP2
13432;SDS011;6789;47.678;9.158;2023-04-20T00:02:17;4.50;;;2.90;;
13432;SDS011;6789;47.678;9.158;2023-04-20T00:07:09;3.87;;;3.13;;
13432;SDS011;6789;47.678;9.158;2023-04-20T00:12:01;4.67;;;3.83;;
13432;SDS011;6789;47.678;9.158;2023-04-20T00:16:53;6.57;;;3.23;;
13432;SDS011;6789;47.678;9.158;2023-04-20T00:21:44;5.57;;;3.57;;
13432;SDS011;6789;47.678;9.158;2023-04-20T00:26:38;4.87;;;3.20;;
13432;SDS011;6789;47.678;9.158;2023-04-20T00:31:30;4.17;;;3.40;;
13432;SDS011;6789;47.678;9.158;2023-04-20T00:36:22;5.43;;;3.57;;
13432;SDS011;6789;47.678;9.158;2023-04-20T00:41:14;4.53;;;3.60;;
13432;SDS011;6789;47.678;9.158;2023-04-20T00:46:05;4.87;;;3.77;;
13432;SDS011;6789;47.678;9.158;2023-04-20T00:50:57;5.20;;;4.00;;
13432;SDS011;6789;47.678;9.158;2023-04-20T00:55:49;5.13;;;3.70;;
13432;SDS011;6789;47.678;9.158;2023-04-20T01:00:41;8.90;;;4.63;;
13432;SDS011;6789;47.678;9.158;2023-04-20T01:05:33;5.57;;;4.00;;
13432;SDS011;6789;47.678;9.158;2023-04-20T01:10:26;5.80;;;3.40;;
13432;SDS011;6789;47.678;9.158;2023-04-20T01:15:17;6.07;;;3.80;;
13432;SDS011;6789;47.678;9.158;2023-04-20T01:20:09;4.20;;;3.43;;
13432;SDS011;6789;47.678;9.158;2023-04-20T01:25:05;5.07;;;3.60;;
13432;SDS011;6789;47.678;9.158;2023-04-20T01:29:57;5.40;;;3.70;;
13432;SDS011;6789;47.678;9.158;2023-04-20T01:34:49;5.50;;;3.90;;
13432;SDS011;6789;47.678;9.158;2023-04-20T01:39:41;4.67;;;3.33;;
13432;SDS011;6789;47.678;9.158;2023-04-20T01:44:33;7.00;;;4.20;;
13432;SDS011;6789;47.678;9.158;2023-04-20T01:49:25;5.43;;;4.10;;
13432;SDS011;6789;47.678;9.158;2023-04-20T01:54:17;5.43;;;3.80;;
13432;SDS011;6789;47.678;9.158;2023-04-20T01:59:09;5.17;;;3.80;;
13432;SDS011;6789;47.678;9.158;2023-04-20T02:04:00;5.43;;;3.77;;
13432;SDS011;6789;47.678;9.158;2023-04-20T02:08:52;5.37;;;4.07;;
13432;SDS011;6789;47.678;9.158;2023-04-20T02:13:44;5.30;;;4.00;;
13432;SDS011;6789;47.678;9.158;2023-04-20T02:18:36;5.90;;;4.20;;
13432;SDS011;6789;47.678;9.158;2023-04-20T02:23:27;5.50;;;4.10;;
13432;SDS011;6789;47.678;9.158;2023-04-20T02:28:19;6.53;;;4.30;;
13432;SDS011;6789;47.678;9.158;2023-04-20T02:33:11;6.53;;;4.20;;
13432;SDS011;6789;47.678;9.158;2023-04-20T02:38:03;5.47;;;4.37;;
13432;SDS011;6789;47.678;9.158;2023-04-20T02:42:54;6.27;;;4.63;;
13432;SDS011;6789;47.678;9.158;2023-04-20T02:47:46;6.50;;;4.90;;
13432;SDS011;6789;47.678;9.158;2023-04-20T02:52:38;6.20;;;5.00;;
13432;SDS011;6789;47.678;9.158;2023-04-20T02:57:29;6.77;;;4.53;;
13432;SDS011;6789;47.678;9.158;2023-04-20T03:02:21;6.40;;;4.93;;
13432;SDS011;6789;47.678;9.158;2023-04-20T03:07:13;7.90;;;5.33;;
13432;SDS011;6789;47.678;9.158;2023-04-20T03:12:06;8.67;;;5.17;;
13432;SDS011;6789;47.678;9.158;2023-04-20T03:16:58;8.50;;;5.60;;
13432;SDS011;6789;47.678;9.158;2023-04-20T03:21:50;9.30;;;5.53;;
13432;SDS011;6789;47.678;9.158;2023-04-20T03:26:42;7.90;;;5.83;;
13432;SDS011;6789;47.678;9.158;2023-04-20T03:31:48;8.13;;;5.87;;
13432;SDS011;6789;47.678;9.158;2023-04-20T03:36:54;8.47;;;5.83;;
13432;SDS011;6789;47.678;9.158;2023-04-20T03:41:46;8.13;;;5.27;;
13432;SDS011;6789;47.678;9.158;2023-04-20T03:46:38;7.30;;;5.30;;
13432;SDS011;6789;47.678;9.158;2023-04-20T03:51:29;8.77;;;5.30;;
13432;SDS011;6789;47.678;9.158;2023-04-20T03:56:22;8.20;;;5.93;;
13432;SDS011;6789;47.678;9.158;2023-04-20T04:01:14;7.23;;;5.40;;
13432;SDS011;6789;47.678;9.158;2023-04-20T04:06:06;9.67;;;5.63;;
13432;SDS011;6789;47.678;9.158;2023-04-20T04:11:00;10.07;;;5.90;;
13432;SDS011;6789;47.678;9.158;2023-04-20T04:16:00;8.40;;;5.87;;
13432;SDS011;6789;47.678;9.158;2023-04-20T04:20:52;6.47;;;5.30;;
13432;SDS011;6789;47.678;9.158;2023-04-20T04:25:43;7.60;;;5.90;;
13432;SDS011;6789;47.678;9.158;2023-04-20T04:30:36;8.70;;;6.07;;
13432;SDS011;6789;47.678;9.158;2023-04-20T04:35:29;8.37;;;6.13;;
13432;SDS011;6789;47.678;9.158;2023-04-20T04:40:23;9.97;;;6.20;;
13432;SDS011;6789;47.678;9.158;2023-04-20T04:45:16;9.47;;;6.13;;
13432;SDS011;6789;47.678;9.158;2023-04-20T04:50:10;9.70;;;6.47;;
13432;SDS011;6789;47.678;9.158;2023-04-20T04:55:16;10.70;;;6.23;;
13432;SDS011;6789;47.678;9.158;2023-04-20T05:00:08;9.10;;;6.07;;
13432;SDS011;6789;47.678;9.158;2023-04-20T05:05:02;11.27;;;6.50;;
13432;SDS011;6789;47.678;9.158;2023-04-20T05:09:57;9.10;;;6.10;;
13432;SDS011;6789;47.678;9.158;2023-04-20T05:14:48;10.03;;;6.37;;
13432;SDS011;6789;47.678;9.158;2023-04-20T05:19:40;9.70;;;6.00;;
13432;SDS011;6789;47.678;9.158;2023-04-20T05:24:34;11.50;;;6.47;;
13432;SDS011;6789;47.678;9.158;2023-04-20T05:29:26;9.27;;;6.47;;
13432;SDS011;6789;47.678;9.158;2023-04-20T05:34:18;8.67;;;6.30;;
13432;SDS011;6789;47.678;9.158;2023-04-20T05:39:10;9.93;;;6.73;;
13432;SDS011;6789;47.678;9.158;2023-04-20T05:44:04;10.77;;;7.20;;
13432;SDS011;6789;47.678;9.158;2023-04-20T05:48:56;11.23;;;7.57;;
13432;SDS011;6789;47.678;9.158;2023-04-20T05:53:49;13.80;;;8.23;;
13432;SDS011;6789;47.678;9.158;2023-04-20T05:58:55;10.77;;;7.90;;
13432;SDS011;6789;47.678;9.158;2023-04-20T06:03:49;11.57;;;7.40;;
13432;SDS011;6789;47.678;9.158;2023-04-20T06:08:41;10.37;;;7.13;;
13432;SDS011;6789;47.678;9.158;2023-04-20T06:13:33;11.53;;;6.90;;
13432;SDS011;6789;47.678;9.158;2023-04-20T06:18:25;7.90;;;6.23;;
13432;SDS011;6789;47.678;9.158;2023-04-20T06:23:18;10.33;;;7.20;;
13432;SDS011;6789;47.678;9.158;2023-04-20T06:28:17;10.97;;;7.60;;
13432;SDS011;6789;47.678;9.158;2023-04-20T06:33:09;12.00;;;6.20;;
13432;SDS011;6789;47.678;9.158;2023-04-20T06:38:21;10.30;;;6.10;;
13432;SDS011;6789;47.678;9.158;2023-04-20T06:43:21;9.77;;;6.53;;
13432;SDS011;6789;47.678;9.158;2023-04-20T06:48:17;11.07;;;6.83;;
13432;SDS011;6789;47.678;9.158;2023-04-20T06:53:23;9.10;;;6.53;;
13432;SDS011;6789;47.678;9.158;2023-04-20T06:58:28;11.23;;;6.30;;
13432;SDS011;6789;47.678;9.158;2023-04-20T07:03:22;9.33;;;6.33;;
13432;SDS011;6789;47.678;9.158;2023-04-20T07:08:16;10.73;;;6.90;;
13432;SDS011;6789;47.678;9.158;2023-04-20T07:13:09;9.03;;;6.20;;
13432;SDS011;6789;47.678;9.158;2023-04-20T07:18:18;9.57;;;6.50;;
13432;SDS011;6789;47.678;9.158;2023-04-20T07:23:11;9.40;;;6.53;;
13432;SDS011;6789;47.678;9.158;2023-04-20T07:28:04;8.43;;;6.30;;
13432;SDS011;6789;47.678;9.158;2023-04-20T07:33:12;11.20;;;6.13;;
13432;SDS011;6789;47.678;9.158;2023-04-20T07:38:06;9.03;;;6.00;;
13432;SDS011;6789;47.678;9.158;2023-04-20T07:42:58;8.20;;;5.53;;
13432;SDS011;6789;47.678;9.158;2023-04-20T07:47:51;8.43;;;5.27;;
13432;SDS011;6789;47.678;9.158;2023-04-20T07:52:46;7.53;;;4.97;;
13432;SDS011;6789;47.678;9.158;2023-04-20T07:57:37;7.70;;;5.30;;
13432;SDS011;6789;47.678;9.158;2023-04-20T08:02:30;7.73;;;4.80;;
13432;SDS011;6789;47.678;9.158;2023-04-20T08:07:23;6.43;;;4.13;;
13432;SDS011;6789;47.678;9.158;2023-04-20T08:12:33;8.43;;;4.97;;
13432;SDS011;6789;47.678;9.158;2023-04-20T08:17:40;5.93;;;4.80;;
13432;SDS011;6789;47.678;9.158;2023-04-20T08:22:36;6.47;;;4.53;;
13432;SDS011;6789;47.678;9.158;2023-04-20T08:27:37;6.13;;;4.40;;
13432;SDS011;6789;47.678;9.158;2023-04-20T08:32:30;5.77;;;3.97;;
13432;SDS011;6789;47.678;9.158;2023-04-20T08:37:36;4.90;;;3.73;;
13432;SDS011;6789;47.678;9.158;2023-04-20T08:42:38;4.90;;;3.57;;
13432;SDS011;6789;47.678;9.158;2023-04-20T08:47:46;4.50;;;3.50;;
13432;SDS011;6789;47.678;9.158;2023-04-20T08:52:56;3.67;;;3.00;;
13432;SDS011;6789;47.678;9.158;2023-04-20T08:58:02;4.90;;;2.70;;
13432;SDS011;6789;47.678;9.158;2023-04-20T09:03:08;2.60;;;2.10;;
13432;SDS011;6789;47.678;9.158;2023-04-20T09:08:00;3.57;;;2.53;;
13432;SDS011;6789;47.678;9.158;2023-04-20T09:12:54;2.47;;;2.13;;
13432;SDS011;6789;47.678;9.158;2023-04-20T09:17:47;3.00;;;2.60;;
13432;SDS011;6789;47.678;9.158;2023-04-20T09:22:53;1.97;;;1.77;;
13432;SDS011;6789;47.678;9.158;2023-04-20T09:28:16;3.57;;;2.50;;
13432;SDS011;6789;47.678;9.158;2023-04-20T09:33:26;2.20;;;2.00;;
13432;SDS011;6789;47.678;9.158;2023-04-20T09:38:24;4.00;;;2.20;;
13432;SDS011;6789;47.678;9.158;2023-04-20T09:43:34;2.33;;;2.03;;
13432;SDS011;6789;47.678;9.158;2023-04-20T09:48:27;1.80;;;1.70;;
13432;SDS011;6789;47.678;9.158;2023-04-20T09:53:23;2.13;;;1.87;;
13432;SDS011;6789;47.678;9.158;2023-04-20T09:58:17;2.10;;;1.90;;
13432;SDS011;6789;47.678;9.158;2023-04-20T10:03:25;2.00;;;1.80;;
13432;SDS011;6789;47.678;9.158;2023-04-20T10:08:40;2.20;;;1.93;;
13432;SDS011;6789;47.678;9.158;2023-04-20T10:13:56;2.63;;;1.87;;
13432;SDS011;6789;47.678;9.158;2023-04-20T10:18:55;3.57;;;1.90;;
13432;SDS011;6789;47.678;9.158;2023-04-20T10:29:40;1.90;;;1.80;;
13432;SDS011;6789;47.678;9.158;2023-04-20T10:34:40;1.67;;;1.53;;
13432;SDS011;6789;47.678;9.158;2023-04-20T10:39:46;2.73;;;1.83;;
13432;SDS011;6789;47.678;9.158;2023-04-20T10:44:53;2.17;;;1.53;;
13432;SDS011;6789;47.678;9.158;2023-04-20T10:50:04;2.00;;;1.80;;
13432;SDS011;6789;47.678;9.158;2023-04-20T10:55:22;2.07;;;1.80;;
13432;SDS011;6789;47.678;9.158;2023-04-20T11:00:20;2.00;;;1.70;;
13432;SDS011;6789;47.678;9.158;2023-04-20T11:05:32;3.17;;;1.77;;
13432;SDS011;6789;47.678;9.158;2023-04-20T11:10:36;2.33;;;2.00;;
13432;SDS011;6789;47.678;9.158;2023-04-20T11:15:37;3.93;;;2.03;;
13432;SDS011;6789;47.678;9.158;2023-04-20T11:20:30;4.20;;;1.70;;
13432;SDS011;6789;47.678;9.158;2023-04-20T11:25:37;3.07;;;1.70;;
13432;SDS011;6789;47.678;9.158;2023-04-20T11:30:57;2.23;;;1.60;;
13432;SDS011;6789;47.678;9.158;2023-04-20T11:35:50;1.27;;;1.07;;
13432;SDS011;6789;47.678;9.158;2023-04-20T11:40:42;1.30;;;1.07;;
13432;SDS011;6789;47.678;9.158;2023-04-20T11:45:34;1.30;;;1.20;;
13432;SDS011;6789;47.678;9.158;2023-04-20T11:50:27;0.80;;;0.80;;
13432;SDS011;6789;47.678;9.158;2023-04-20T11:55:24;1.83;;;1.10;;
13432;SDS011;6789;47.678;9.158;2023-04-20T12:00:16;1.60;;;1.30;;
13432;SDS011;6789;47.678;9.158;2023-04-20T12:05:11;1.60;;;1.27;;
13432;SDS011;6789;47.678;9.158;2023-04-20T12:10:17;2.87;;;1.30;;
13432;SDS011;6789;47.678;9.158;2023-04-20T12:15:09;1.47;;;1.30;;
13432;SDS011;6789;47.678;9.158;2023-04-20T12:20:16;1.77;;;1.27;;
13432;SDS011;6789;47.678;9.158;2023-04-20T12:25:22;1.10;;;1.00;;
13432;SDS011;6789;47.678;9.158;2023-04-20T12:30:28;1.63;;;1.20;;
13432;SDS011;6789;47.678;9.158;2023-04-20T12:35:34;2.07;;;1.20;;
13432;SDS011;6789;47.678;9.158;2023-04-20T12:40:27;1.63;;;1.10;;
13432;SDS011;6789;47.678;9.158;2023-04-20T12:45:20;1.63;;;1.33;;
13432;SDS011;6789;47.678;9.158;2023-04-20T12:50:36;1.40;;;1.30;;
13432;SDS011;6789;47.678;9.158;2023-04-20T12:55:44;1.37;;;1.27;;
13432;SDS011;6789;47.678;9.158;2023-04-20T13:00:36;1.67;;;1.30;;
13432;SDS011;6789;47.678;9.158;2023-04-20T13:05:43;1.30;;;1.20;;
13432;SDS011;6789;47.678;9.158;2023-04-20T13:10:48;1.07;;;1.00;;
13432;SDS011;6789;47.678;9.158;2023-04-20T13:15:43;1.63;;;1.27;;
13432;SDS011;6789;47.678;9.158;2023-04-20T13:20:35;1.43;;;1.33;;
13432;SDS011;6789;47.678;9.158;2023-04-20T13:25:35;1.57;;;1.33;;
13432;SDS011;6789;47.678;9.158;2023-04-20T13:30:46;2.07;;;1.87;;
13432;SDS011;6789;47.678;9.158;2023-04-20T13:35:52;1.53;;;1.40;;
13432;SDS011;6789;47.678;9.158;2023-04-20T13:40:58;2.10;;;1.80;;
13432;SDS011;6789;47.678;9.158;2023-04-20T13:46:04;3.20;;;1.73;;
13432;SDS011;6789;47.678;9.158;2023-04-20T13:51:06;1.90;;;1.70;;
13432;SDS011;6789;47.678;9.158;2023-04-20T13:55:59;1.87;;;1.63;;
13432;SDS011;6789;47.678;9.158;2023-04-20T14:01:09;1.70;;;1.60;;
13432;SDS011;6789;47.678;9.158;2023-04-20T14:06:04;1.70;;;1.60;;
13432;SDS011;6789;47.678;9.158;2023-04-20T14:10:57;1.70;;;1.60;;
13432;SDS011;6789;47.678;9.158;2023-04-20T14:15:49;2.23;;;1.83;;
13432;SDS011;6789;47.678;9.158;2023-04-20T14:20:41;2.00;;;1.80;;
13432;SDS011;6789;47.678;9.158;2023-04-20T14:25:42;1.90;;;1.80;;
13432;SDS011;6789;47.678;9.158;2023-04-20T14:30:34;2.37;;;1.93;;
13432;SDS011;6789;47.678;9.158;2023-04-20T14:35:40;1.73;;;1.60;;
13432;SDS011;6789;47.678;9.158;2023-04-20T14:40:32;2.03;;;1.80;;
13432;SDS011;6789;47.678;9.158;2023-04-20T14:45:39;2.60;;;1.87;;
13432;SDS011;6789;47.678;9.158;2023-04-20T14:50:32;2.50;;;2.00;;
13432;SDS011;6789;47.678;9.158;2023-04-20T14:55:39;2.97;;;2.50;;
13432;SDS011;6789;47.678;9.158;2023-04-20T15:00:38;2.20;;;1.90;;
13432;SDS011;6789;47.678;9.158;2023-04-20T15:05:30;3.27;;;2.10;;
13432;SDS011;6789;47.678;9.158;2023-04-20T15:10:36;2.57;;;2.10;;
13432;SDS011;6789;47.678;9.158;2023-04-20T15:15:52;2.17;;;1.97;;
13432;SDS011;6789;47.678;9.158;2023-04-20T15:20:45;4.50;;;2.90;;
13432;SDS011;6789;47.678;9.158;2023-04-20T15:25:52;2.50;;;2.30;;
13432;SDS011;6789;47.678;9.158;2023-04-20T15:30:58;3.17;;;2.43;;
13432;SDS011;6789;47.678;9.158;2023-04-20T15:35:49;2.80;;;2.50;;
13432;SDS011;6789;47.678;9.158;2023-04-20T15:40:41;3.33;;;2.70;;
13432;SDS011;6789;47.678;9.158;2023-04-20T15:45:33;2.83;;;2.60;;
13432;SDS011;6789;47.678;9.158;2023-04-20T15:50:40;6.30;;;2.83;;
13432;SDS011;6789;47.678;9.158;2023-04-20T15:55:32;2.87;;;2.57;;
13432;SDS011;6789;47.678;9.158;2023-04-20T16:00:28;3.40;;;2.63;;
13432;SDS011;6789;47.678;9.158;2023-04-20T16:05:24;2.50;;;2.30;;
13432;SDS011;6789;47.678;9.158;2023-04-20T16:10:19;4.47;;;2.73;;
13432;SDS011;6789;47.678;9.158;2023-04-20T16:15:11;5.73;;;3.63;;
13432;SDS011;6789;47.678;9.158;2023-04-20T16:20:17;3.63;;;2.90;;
13432;SDS011;6789;47.678;9.158;2023-04-20T16:25:23;3.80;;;3.30;;
13432;SDS011;6789;47.678;9.158;2023-04-20T16:30:43;4.83;;;3.30;;
13432;SDS011;6789;47.678;9.158;2023-04-20T16:35:49;3.03;;;2.70;;
13432;SDS011;6789;47.678;9.158;2023-04-20T16:40:57;4.63;;;3.27;;
13432;SDS011;6789;47.678;9.158;2023-04-20T16:46:03;5.17;;;3.13;;
13432;SDS011;6789;47.678;9.158;2023-04-20T16:51:09;4.13;;;3.03;;
13432;SDS011;6789;47.678;9.158;2023-04-20T16:56:25;3.90;;;3.07;;
13432;SDS011;6789;47.678;9.158;2023-04-20T17:01:22;3.43;;;3.10;;
13432;SDS011;6789;47.678;9.158;2023-04-20T17:06:29;3.87;;;2.87;;
13432;SDS011;6789;47.678;9.158;2023-04-20T17:11:56;3.87;;;3.17;;
13432;SDS011;6789;47.678;9.158;2023-04-20T17:17:03;6.60;;;3.20;;
13432;SDS011;6789;47.678;9.158;2023-04-20T17:21:57;3.50;;;2.90;;
13432;SDS011;6789;47.678;9.158;2023-04-20T17:26:52;3.00;;;2.70;;
13432;SDS011;6789;47.678;9.158;2023-04-20T17:31:46;2.93;;;2.60;;
13432;SDS011;6789;47.678;9.158;2023-04-20T17:36:52;2.90;;;2.60;;
13432;SDS011;6789;47.678;9.158;2023-04-20T17:41:55;3.50;;;2.63;;
13432;SDS011;6789;47.678;9.158;2023-04-20T17:47:12;3.10;;;2.70;;
13432;SDS011;6789;47.678;9.158;2023-04-20T17:52:05;3.37;;;2.80;;
13432;SDS011;6789;47.678;9.158;2023-04-20T17:57:00;4.13;;;2.70;;
13432;SDS011;6789;47.678;9.158;2023-04-20T18:01:54;3.50;;;2.80;;
13432;SDS011;6789;47.678;9.158;2023-04-20T18:06:46;3.87;;;2.53;;
13432;SDS011;6789;47.678;9.158;2023-04-20T18:11:53;4.00;;;2.83;;
13432;SDS011;6789;47.678;9.158;2023-04-20T18:16:46;3.17;;;2.47;;
13432;SDS011;6789;47.678;9.158;2023-04-20T18:21:55;2.47;;;2.27;;
13432;SDS011;6789;47.678;9.158;2023-04-20T18:26:47;3.13;;;2.67;;
13432;SDS011;6789;47.678;9.158;2023-04-20T18:31:43;2.63;;;2.40;;
13432;SDS011;6789;47.678;9.158;2023-04-20T18:36:38;2.83;;;2.33;;
13432;SDS011;6789;47.678;9.158;2023-04-20T18:41:44;3.50;;;2.40;;
13432;SDS011;6789;47.678;9.158;2023-04-20T18:46:37;2.50;;;2.30;;
13432;SDS011;6789;47.678;9.158;2023-04-20T18:51:43;3.37;;;2.70;;
13432;SDS011;6789;47.678;9.158;2023-04-20T18:56:38;3.20;;;2.57;;
13432;SDS011;6789;47.678;9.158;2023-04-20T19:01:44;3.20;;;2.70;;
13432;SDS011;6789;47.678;9.158;2023-04-20T19:06:40;5.33;;;3.40;;
13432;SDS011;6789;47.678;9.158;2023-04-20T19:11:35;5.37;;;3.93;;
13432;SDS011;6789;47.678;9.158;2023-04-20T19:16:40;7.57;;;5.17;;
13432;SDS011;6789;47.678;9.158;2023-04-20T19:21:46;5.33;;;4.27;;
13432;SDS011;6789;47.678;9.158;2023-04-20T19:26:52;6.70;;;5.17;;
13432;SDS011;6789;47.678;9.158;2023-04-20T19:31:44;6.77;;;5.10;;
13432;SDS011;6789;47.678;9.158;2023-04-20T19:36:50;7.00;;;4.90;;
13432;SDS011;6789;47.678;9.158;2023-04-20T19:41:56;8.57;;;6.07;;
13432;SDS011;6789;47.678;9.158;2023-04-20T19:47:12;10.63;;;7.00;;
13432;SDS011;6789;47.678;9.158;2023-04-20T19:52:18;8.20;;;6.00;;
13432;SDS011;6789;47.678;9.158;2023-04-20T19:57:25;7.70;;;5.33;;
13432;SDS011;6789;47.678;9.158;2023-04-20T20:02:21;6.27;;;5.13;;
13432;SDS011;6789;47.678;9.158;2023-04-20T20:07:13;8.83;;;5.40;;
13432;SDS011;6789;47.678;9.158;2023-04-20T20:12:06;5.37;;;4.20;;
13432;SDS011;6789;47.678;9.158;2023-04-20T20:17:14;5.60;;;4.00;;
13432;SDS011;6789;47.678;9.158;2023-04-20T20:22:07;4.77;;;3.33;;
13432;SDS011;6789;47.678;9.158;2023-04-20T20:27:14;4.90;;;3.00;;
13432;SDS011;6789;47.678;9.158;2023-04-20T20:32:07;3.13;;;2.80;;
13432;SDS011;6789;47.678;9.158;2023-04-20T20:37:02;4.87;;;3.30;;
13432;SDS011;6789;47.678;9.158;2023-04-20T20:42:08;6.47;;;3.23;;
13432;SDS011;6789;47.678;9.158;2023-04-20T20:47:14;4.53;;;2.90;;
13432;SDS011;6789;47.678;9.158;2023-04-20T20:52:05;2.70;;;1.73;;
13432;SDS011;6789;47.678;9.158;2023-04-20T20:57:01;3.30;;;1.43;;
13432;SDS011;6789;47.678;9.158;2023-04-20T21:02:08;1.60;;;1.30;;
13432;SDS011;6789;47.678;9.158;2023-04-20T21:07:00;1.10;;;1.00;;
13432;SDS011;6789;47.678;9.158;2023-04-20T21:11:51;0.90;;;0.90;;
13432;SDS011;6789;47.678;9.158;2023-04-20T21:16:57;1.77;;;0.87;;
13432;SDS011;6789;47.678;9.158;2023-04-20T21:22:03;1.30;;;1.07;;
13432;SDS011;6789;47.678;9.158;2023-04-20T21:26:55;1.50;;;1.30;;
13432;SDS011;6789;47.678;9.158;2023-04-20T21:31:48;1.50;;;1.40;;
13432;SDS011;6789;47.678;9.158;2023-04-20T21:36:41;1.60;;;1.20;;
13432;SDS011;6789;47.678;9.158;2023-04-20T21:41:33;2.07;;;1.53;;
13432;SDS011;6789;47.678;9.158;2023-04-20T21:46:39;3.40;;;1.50;;
13432;SDS011;6789;47.678;9.158;2023-04-20T21:51:31;1.50;;;1.20;;
13432;SDS011;6789;47.678;9.158;2023-04-20T21:56:24;1.73;;;1.47;;
13432;SDS011;6789;47.678;9.158;2023-04-20T22:01:19;2.10;;;1.43;;
13432;SDS011;6789;47.678;9.158;2023-04-20T22:07:00;1.70;;;1.60;;
13432;SDS011;6789;47.678;9.158;2023-04-20T22:11:59;1.50;;;1.40;;
13432;SDS011;6789;47.678;9.158;2023-04-20T22:16:57;2.33;;;1.70;;
13432;SDS011;6789;47.678;9.158;2023-04-20T22:22:09;2.20;;;1.87;;
13432;SDS011;6789;47.678;9.158;2023-04-20T22:27:17;2.10;;;1.80;;
13432;SDS011;6789;47.678;9.158;2023-04-20T22:39:05;1.60;;;1.23;;
13432;SDS011;6789;47.678;9.158;2023-04-20T22:44:11;2.60;;;1.50;;
13432;SDS011;6789;47.678;9.158;2023-04-20T22:49:48;2.23;;;1.87;;
13432;SDS011;6789;47.678;9.158;2023-04-20T22:55:07;2.47;;;1.90;;
13432;SDS011;6789;47.678;9.158;2023-04-20T23:00:45;1.53;;;1.43;;
13432;SDS011;6789;47.678;9.158;2023-04-20T23:05:53;3.33;;;1.80;;
13432;SDS011;6789;47.678;9.158;2023-04-20T23:11:11;1.93;;;1.40;;
13432;SDS011;6789;47.678;9.158;2023-04-20T23:16:31;2.53;;;1.70;;
13432;SDS011;6789;47.678;9.158;2023-04-20T23:21:42;4.50;;;1.93;;
13432;SDS011;6789;47.678;9.158;2023-04-20T23:26:59;2.87;;;2.00;;
13432;SDS011;6789;47.678;9.158;2023-04-20T23:32:31;2.87;;;1.97;;
13432;SDS011;6789;47.678;9.158;2023-04-20T23:38:13;2.80;;;1.97;;
13432;SDS011;6789;47.678;9.158;2023-04-20T23:43:46;2.30;;;1.60;;
13432;SDS011;6789;47.678;9.158;2023-04-20T23:48:37;2.23;;;1.83;;
13432;SDS011;6789;47.678;9.158;2023-04-20T23:53:29;3.27;;;1.83;;
13432;SDS011;6789;47.678;9.158;2023-04-20T23:58:24;3.47;;;2.07;;
